sensor_id;sensor_type;location;lat;lon;timestamp;P1;durP1;ratioP1;P2;durP2;ratioP2
18449;SDS011;9354;50.194;7.690;2023-01-31T00:00:56;17.20;;;2.30;;
18449;SDS011;9354;50.194;7.690;2023-01-31T00:03:31;11.33;;;2.00;;
18449;SDS011;9354;50.194;7.690;2023-01-31T00:06:07;19.27;;;2.23;;
18449;SDS011;9354;50.194;7.690;2023-01-31T00:08:40;23.77;;;2.30;;
18449;SDS011;9354;50.194;7.690;2023-01-31T00:11:08;20.43;;;2.97;;
18449;SDS011;9354;50.194;7.690;2023-01-31T00:13:35;15.47;;;1.97;;
18449;SDS011;9354;50.194;7.690;2023-01-31T00:16:03;20.73;;;2.90;;
18449;SDS011;9354;50.194;7.690;2023-01-31T00:18:32;11.57;;;2.20;;
18449;SDS011;9354;50.194;7.690;2023-01-31T00:21:04;15.37;;;2.40;;
18449;SDS011;9354;50.194;7.690;2023-01-31T00:23:33;8.90;;;2.33;;
18449;SDS011;9354;50.194;7.690;2023-01-31T00:26:07;15.90;;;2.40;;
18449;SDS011;9354;50.194;7.690;2023-01-31T00:28:35;17.03;;;3.07;;
18449;SDS011;9354;50.194;7.690;2023-01-31T00:31:03;26.23;;;2.70;;
18449;SDS011;9354;50.194;7.690;2023-01-31T00:33:32;19.17;;;3.23;;
18449;SDS011;9354;50.194;7.690;2023-01-31T00:36:01;17.23;;;2.30;;
18449;SDS011;9354;50.194;7.690;2023-01-31T00:38:30;16.67;;;2.23;;
18449;SDS011;9354;50.194;7.690;2023-01-31T00:40:57;17.57;;;2.70;;
18449;SDS011;9354;50.194;7.690;2023-01-31T00:43:25;21.00;;;2.70;;
18449;SDS011;9354;50.194;7.690;2023-01-31T00:45:52;16.40;;;2.70;;
18449;SDS011;9354;50.194;7.690;2023-01-31T00:48:20;22.00;;;2.40;;
18449;SDS011;9354;50.194;7.690;2023-01-31T00:50:48;12.67;;;2.17;;
18449;SDS011;9354;50.194;7.690;2023-01-31T00:53:16;19.67;;;2.87;;
18449;SDS011;9354;50.194;7.690;2023-01-31T00:55:48;21.63;;;2.60;;
18449;SDS011;9354;50.194;7.690;2023-01-31T00:58:16;11.90;;;2.13;;
18449;SDS011;9354;50.194;7.690;2023-01-31T01:00:43;24.83;;;2.70;;
18449;SDS011;9354;50.194;7.690;2023-01-31T01:03:11;22.80;;;2.70;;
18449;SDS011;9354;50.194;7.690;2023-01-31T01:05:39;13.77;;;2.40;;
18449;SDS011;9354;50.194;7.690;2023-01-31T01:08:08;25.60;;;2.33;;
18449;SDS011;9354;50.194;7.690;2023-01-31T01:10:35;15.50;;;2.90;;
18449;SDS011;9354;50.194;7.690;2023-01-31T01:13:03;18.63;;;3.07;;
18449;SDS011;9354;50.194;7.690;2023-01-31T01:15:31;17.90;;;2.90;;
18449;SDS011;9354;50.194;7.690;2023-01-31T01:17:58;14.60;;;2.27;;
18449;SDS011;9354;50.194;7.690;2023-01-31T01:20:26;30.23;;;3.67;;
18449;SDS011;9354;50.194;7.690;2023-01-31T01:22:53;19.70;;;2.50;;
18449;SDS011;9354;50.194;7.690;2023-01-31T01:25:22;15.87;;;2.30;;
18449;SDS011;9354;50.194;7.690;2023-01-31T01:27:49;17.83;;;2.97;;
18449;SDS011;9354;50.194;7.690;2023-01-31T01:30:17;19.73;;;3.13;;
18449;SDS011;9354;50.194;7.690;2023-01-31T01:32:44;22.80;;;2.87;;
18449;SDS011;9354;50.194;7.690;2023-01-31T01:35:12;19.00;;;3.30;;
18449;SDS011;9354;50.194;7.690;2023-01-31T01:37:39;15.23;;;2.80;;
18449;SDS011;9354;50.194;7.690;2023-01-31T01:40:07;16.17;;;2.50;;
18449;SDS011;9354;50.194;7.690;2023-01-31T01:42:37;15.27;;;2.47;;
18449;SDS011;9354;50.194;7.690;2023-01-31T01:45:08;10.10;;;2.23;;
18449;SDS011;9354;50.194;7.690;2023-01-31T01:47:41;17.27;;;2.67;;
18449;SDS011;9354;50.194;7.690;2023-01-31T01:50:13;13.83;;;2.27;;
18449;SDS011;9354;50.194;7.690;2023-01-31T01:52:45;19.57;;;2.17;;
18449;SDS011;9354;50.194;7.690;2023-01-31T01:55:18;11.43;;;2.07;;
18449;SDS011;9354;50.194;7.690;2023-01-31T01:57:50;21.37;;;3.00;;
18449;SDS011;9354;50.194;7.690;2023-01-31T02:00:21;13.87;;;2.67;;
18449;SDS011;9354;50.194;7.690;2023-01-31T02:02:51;23.43;;;2.67;;
18449;SDS011;9354;50.194;7.690;2023-01-31T02:05:23;21.90;;;3.00;;
18449;SDS011;9354;50.194;7.690;2023-01-31T02:07:53;23.47;;;2.40;;
18449;SDS011;9354;50.194;7.690;2023-01-31T02:10:22;16.13;;;2.30;;
18449;SDS011;9354;50.194;7.690;2023-01-31T02:12:53;21.30;;;3.50;;
18449;SDS011;9354;50.194;7.690;2023-01-31T02:15:21;15.03;;;2.07;;
18449;SDS011;9354;50.194;7.690;2023-01-31T02:17:49;17.50;;;2.60;;
18449;SDS011;9354;50.194;7.690;2023-01-31T02:20:21;12.87;;;2.40;;
18449;SDS011;9354;50.194;7.690;2023-01-31T02:23:16;12.27;;;1.93;;
18449;SDS011;9354;50.194;7.690;2023-01-31T02:26:07;15.70;;;2.50;;
18449;SDS011;9354;50.194;7.690;2023-01-31T02:28:58;13.10;;;3.17;;
18449;SDS011;9354;50.194;7.690;2023-01-31T02:34:35;17.70;;;2.20;;
18449;SDS011;9354;50.194;7.690;2023-01-31T02:37:13;9.93;;;2.50;;
18449;SDS011;9354;50.194;7.690;2023-01-31T02:39:55;18.03;;;2.93;;
18449;SDS011;9354;50.194;7.690;2023-01-31T02:42:33;15.80;;;2.23;;
18449;SDS011;9354;50.194;7.690;2023-01-31T02:45:08;16.57;;;2.50;;
18449;SDS011;9354;50.194;7.690;2023-01-31T02:47:41;11.37;;;2.63;;
18449;SDS011;9354;50.194;7.690;2023-01-31T02:50:19;13.27;;;2.23;;
18449;SDS011;9354;50.194;7.690;2023-01-31T02:52:54;19.50;;;2.93;;
18449;SDS011;9354;50.194;7.690;2023-01-31T02:55:28;14.30;;;2.27;;
18449;SDS011;9354;50.194;7.690;2023-01-31T02:58:19;12.53;;;2.83;;
18449;SDS011;9354;50.194;7.690;2023-01-31T03:00:47;16.47;;;3.10;;
18449;SDS011;9354;50.194;7.690;2023-01-31T03:03:17;20.20;;;2.60;;
18449;SDS011;9354;50.194;7.690;2023-01-31T03:09:02;14.23;;;2.33;;
18449;SDS011;9354;50.194;7.690;2023-01-31T03:11:35;12.20;;;2.40;;
18449;SDS011;9354;50.194;7.690;2023-01-31T03:14:14;11.80;;;1.90;;
18449;SDS011;9354;50.194;7.690;2023-01-31T03:16:51;17.17;;;2.40;;
18449;SDS011;9354;50.194;7.690;2023-01-31T03:19:44;15.33;;;2.30;;
18449;SDS011;9354;50.194;7.690;2023-01-31T03:22:19;22.77;;;2.43;;
18449;SDS011;9354;50.194;7.690;2023-01-31T03:24:53;12.13;;;2.53;;
18449;SDS011;9354;50.194;7.690;2023-01-31T03:27:22;14.60;;;2.23;;
18449;SDS011;9354;50.194;7.690;2023-01-31T03:29:50;12.27;;;2.37;;
18449;SDS011;9354;50.194;7.690;2023-01-31T03:32:25;14.40;;;2.07;;
18449;SDS011;9354;50.194;7.690;2023-01-31T03:34:56;18.13;;;2.07;;
18449;SDS011;9354;50.194;7.690;2023-01-31T03:37:26;14.90;;;2.30;;
18449;SDS011;9354;50.194;7.690;2023-01-31T03:40:01;11.60;;;2.23;;
18449;SDS011;9354;50.194;7.690;2023-01-31T03:42:33;11.37;;;2.27;;
18449;SDS011;9354;50.194;7.690;2023-01-31T03:45:08;13.70;;;2.40;;
18449;SDS011;9354;50.194;7.690;2023-01-31T03:47:38;17.77;;;2.00;;
18449;SDS011;9354;50.194;7.690;2023-01-31T03:50:09;17.33;;;2.53;;
18449;SDS011;9354;50.194;7.690;2023-01-31T03:52:43;13.27;;;2.23;;
18449;SDS011;9354;50.194;7.690;2023-01-31T03:55:16;17.53;;;2.20;;
18449;SDS011;9354;50.194;7.690;2023-01-31T03:57:48;12.37;;;1.93;;
18449;SDS011;9354;50.194;7.690;2023-01-31T04:00:19;10.17;;;1.90;;
18449;SDS011;9354;50.194;7.690;2023-01-31T04:02:54;19.50;;;3.47;;
18449;SDS011;9354;50.194;7.690;2023-01-31T04:05:24;19.83;;;2.50;;
18449;SDS011;9354;50.194;7.690;2023-01-31T04:07:57;13.83;;;2.30;;
18449;SDS011;9354;50.194;7.690;2023-01-31T04:10:25;21.53;;;2.33;;
18449;SDS011;9354;50.194;7.690;2023-01-31T04:12:54;17.53;;;2.57;;
18449;SDS011;9354;50.194;7.690;2023-01-31T04:15:21;12.77;;;2.30;;
18449;SDS011;9354;50.194;7.690;2023-01-31T04:17:49;26.10;;;3.03;;
18449;SDS011;9354;50.194;7.690;2023-01-31T04:20:16;18.57;;;2.63;;
18449;SDS011;9354;50.194;7.690;2023-01-31T04:22:44;17.60;;;2.53;;
18449;SDS011;9354;50.194;7.690;2023-01-31T04:25:12;22.33;;;2.47;;
18449;SDS011;9354;50.194;7.690;2023-01-31T04:27:40;18.23;;;2.90;;
18449;SDS011;9354;50.194;7.690;2023-01-31T04:30:08;18.47;;;3.43;;
18449;SDS011;9354;50.194;7.690;2023-01-31T04:32:36;19.87;;;2.57;;
18449;SDS011;9354;50.194;7.690;2023-01-31T04:35:04;9.70;;;3.17;;
18449;SDS011;9354;50.194;7.690;2023-01-31T04:37:31;19.27;;;3.07;;
18449;SDS011;9354;50.194;7.690;2023-01-31T04:40:00;15.90;;;3.30;;
18449;SDS011;9354;50.194;7.690;2023-01-31T04:42:31;13.47;;;3.33;;
18449;SDS011;9354;50.194;7.690;2023-01-31T04:44:59;16.47;;;2.77;;
18449;SDS011;9354;50.194;7.690;2023-01-31T04:47:26;19.13;;;3.27;;
18449;SDS011;9354;50.194;7.690;2023-01-31T04:49:53;13.63;;;2.93;;
18449;SDS011;9354;50.194;7.690;2023-01-31T04:52:21;27.60;;;3.73;;
18449;SDS011;9354;50.194;7.690;2023-01-31T04:54:49;19.27;;;3.57;;
18449;SDS011;9354;50.194;7.690;2023-01-31T04:57:16;19.90;;;3.50;;
18449;SDS011;9354;50.194;7.690;2023-01-31T04:59:45;20.53;;;3.77;;
18449;SDS011;9354;50.194;7.690;2023-01-31T05:02:14;18.33;;;3.27;;
18449;SDS011;9354;50.194;7.690;2023-01-31T05:04:42;19.33;;;3.50;;
18449;SDS011;9354;50.194;7.690;2023-01-31T05:07:09;26.90;;;3.60;;
18449;SDS011;9354;50.194;7.690;2023-01-31T05:09:37;23.07;;;3.73;;
18449;SDS011;9354;50.194;7.690;2023-01-31T05:12:07;20.73;;;4.47;;
18449;SDS011;9354;50.194;7.690;2023-01-31T05:14:34;14.00;;;3.57;;
18449;SDS011;9354;50.194;7.690;2023-01-31T05:17:03;22.93;;;4.53;;
18449;SDS011;9354;50.194;7.690;2023-01-31T05:19:31;21.90;;;4.57;;
18449;SDS011;9354;50.194;7.690;2023-01-31T05:21:58;21.60;;;4.77;;
18449;SDS011;9354;50.194;7.690;2023-01-31T05:24:26;21.23;;;4.40;;
18449;SDS011;9354;50.194;7.690;2023-01-31T05:26:55;19.50;;;4.13;;
18449;SDS011;9354;50.194;7.690;2023-01-31T05:29:24;16.07;;;4.30;;
18449;SDS011;9354;50.194;7.690;2023-01-31T05:31:52;14.83;;;4.07;;
18449;SDS011;9354;50.194;7.690;2023-01-31T05:34:21;15.90;;;4.13;;
18449;SDS011;9354;50.194;7.690;2023-01-31T05:36:50;20.30;;;5.53;;
18449;SDS011;9354;50.194;7.690;2023-01-31T05:39:17;25.60;;;5.67;;
18449;SDS011;9354;50.194;7.690;2023-01-31T05:41:45;20.33;;;4.30;;
18449;SDS011;9354;50.194;7.690;2023-01-31T05:44:12;19.63;;;4.80;;
18449;SDS011;9354;50.194;7.690;2023-01-31T05:46:40;22.87;;;5.47;;
18449;SDS011;9354;50.194;7.690;2023-01-31T05:49:08;22.80;;;5.07;;
18449;SDS011;9354;50.194;7.690;2023-01-31T05:51:37;24.73;;;4.60;;
18449;SDS011;9354;50.194;7.690;2023-01-31T05:54:05;39.10;;;8.97;;
18449;SDS011;9354;50.194;7.690;2023-01-31T05:56:33;23.63;;;5.60;;
18449;SDS011;9354;50.194;7.690;2023-01-31T05:59:01;16.00;;;4.30;;
18449;SDS011;9354;50.194;7.690;2023-01-31T06:01:28;17.93;;;4.30;;
18449;SDS011;9354;50.194;7.690;2023-01-31T06:03:56;29.17;;;5.17;;
18449;SDS011;9354;50.194;7.690;2023-01-31T06:06:23;23.07;;;4.40;;
18449;SDS011;9354;50.194;7.690;2023-01-31T06:08:52;19.07;;;4.40;;
18449;SDS011;9354;50.194;7.690;2023-01-31T06:11:19;23.37;;;5.03;;
18449;SDS011;9354;50.194;7.690;2023-01-31T06:13:47;20.07;;;4.27;;
18449;SDS011;9354;50.194;7.690;2023-01-31T06:16:14;22.07;;;4.30;;
18449;SDS011;9354;50.194;7.690;2023-01-31T06:18:42;13.07;;;3.83;;
18449;SDS011;9354;50.194;7.690;2023-01-31T06:21:09;19.17;;;4.47;;
18449;SDS011;9354;50.194;7.690;2023-01-31T06:23:37;13.70;;;3.80;;
18449;SDS011;9354;50.194;7.690;2023-01-31T06:26:06;17.30;;;3.77;;
18449;SDS011;9354;50.194;7.690;2023-01-31T06:28:35;19.77;;;4.67;;
18449;SDS011;9354;50.194;7.690;2023-01-31T06:31:05;19.17;;;4.27;;
18449;SDS011;9354;50.194;7.690;2023-01-31T06:33:32;23.93;;;4.10;;
18449;SDS011;9354;50.194;7.690;2023-01-31T06:36:00;18.53;;;4.67;;
18449;SDS011;9354;50.194;7.690;2023-01-31T06:38:28;17.97;;;4.73;;
18449;SDS011;9354;50.194;7.690;2023-01-31T06:40:56;21.90;;;4.60;;
18449;SDS011;9354;50.194;7.690;2023-01-31T06:43:25;20.10;;;4.87;;
18449;SDS011;9354;50.194;7.690;2023-01-31T06:45:52;16.23;;;4.50;;
18449;SDS011;9354;50.194;7.690;2023-01-31T06:48:19;19.60;;;4.20;;
18449;SDS011;9354;50.194;7.690;2023-01-31T06:50:47;22.83;;;4.63;;
18449;SDS011;9354;50.194;7.690;2023-01-31T06:53:14;24.97;;;7.50;;
18449;SDS011;9354;50.194;7.690;2023-01-31T06:55:42;29.80;;;7.57;;
18449;SDS011;9354;50.194;7.690;2023-01-31T06:58:09;16.20;;;3.63;;
18449;SDS011;9354;50.194;7.690;2023-01-31T07:00:38;22.03;;;4.30;;
18449;SDS011;9354;50.194;7.690;2023-01-31T07:03:05;19.57;;;4.90;;
18449;SDS011;9354;50.194;7.690;2023-01-31T07:05:32;24.57;;;5.10;;
18449;SDS011;9354;50.194;7.690;2023-01-31T07:08:00;14.67;;;3.77;;
18449;SDS011;9354;50.194;7.690;2023-01-31T07:10:27;30.23;;;5.73;;
18449;SDS011;9354;50.194;7.690;2023-01-31T07:12:54;17.03;;;4.57;;
18449;SDS011;9354;50.194;7.690;2023-01-31T07:15:22;15.57;;;4.30;;
18449;SDS011;9354;50.194;7.690;2023-01-31T07:17:51;23.53;;;5.00;;
18449;SDS011;9354;50.194;7.690;2023-01-31T07:20:23;19.53;;;4.17;;
18449;SDS011;9354;50.194;7.690;2023-01-31T07:22:54;26.57;;;7.87;;
18449;SDS011;9354;50.194;7.690;2023-01-31T07:25:21;24.07;;;5.37;;
18449;SDS011;9354;50.194;7.690;2023-01-31T07:27:48;35.13;;;6.17;;
18449;SDS011;9354;50.194;7.690;2023-01-31T07:30:16;18.43;;;4.90;;
18449;SDS011;9354;50.194;7.690;2023-01-31T07:32:44;21.73;;;4.53;;
18449;SDS011;9354;50.194;7.690;2023-01-31T07:35:12;25.07;;;5.07;;
18449;SDS011;9354;50.194;7.690;2023-01-31T07:37:40;24.30;;;4.90;;
18449;SDS011;9354;50.194;7.690;2023-01-31T07:40:08;27.00;;;8.07;;
18449;SDS011;9354;50.194;7.690;2023-01-31T07:42:39;18.13;;;6.10;;
18449;SDS011;9354;50.194;7.690;2023-01-31T07:45:08;20.30;;;3.83;;
18449;SDS011;9354;50.194;7.690;2023-01-31T07:47:38;17.77;;;3.50;;
18449;SDS011;9354;50.194;7.690;2023-01-31T07:50:05;19.47;;;3.80;;
18449;SDS011;9354;50.194;7.690;2023-01-31T07:52:35;26.90;;;8.23;;
18449;SDS011;9354;50.194;7.690;2023-01-31T07:55:02;17.17;;;4.30;;
18449;SDS011;9354;50.194;7.690;2023-01-31T07:57:30;22.83;;;4.47;;
18449;SDS011;9354;50.194;7.690;2023-01-31T07:59:57;17.97;;;3.70;;
18449;SDS011;9354;50.194;7.690;2023-01-31T08:02:25;19.73;;;4.23;;
18449;SDS011;9354;50.194;7.690;2023-01-31T08:05:10;15.37;;;3.47;;
18449;SDS011;9354;50.194;7.690;2023-01-31T08:07:38;17.87;;;4.40;;
18449;SDS011;9354;50.194;7.690;2023-01-31T08:10:06;23.80;;;4.90;;
18449;SDS011;9354;50.194;7.690;2023-01-31T08:12:35;16.10;;;4.13;;
18449;SDS011;9354;50.194;7.690;2023-01-31T08:15:02;16.73;;;4.10;;
18449;SDS011;9354;50.194;7.690;2023-01-31T08:17:30;17.53;;;4.40;;
18449;SDS011;9354;50.194;7.690;2023-01-31T08:19:57;24.57;;;5.20;;
18449;SDS011;9354;50.194;7.690;2023-01-31T08:22:25;10.10;;;4.13;;
18449;SDS011;9354;50.194;7.690;2023-01-31T08:24:54;14.63;;;4.80;;
18449;SDS011;9354;50.194;7.690;2023-01-31T08:27:21;10.53;;;3.60;;
18449;SDS011;9354;50.194;7.690;2023-01-31T08:29:48;18.20;;;4.33;;
18449;SDS011;9354;50.194;7.690;2023-01-31T08:32:16;15.37;;;4.70;;
18449;SDS011;9354;50.194;7.690;2023-01-31T08:34:43;15.77;;;5.33;;
18449;SDS011;9354;50.194;7.690;2023-01-31T08:37:10;16.73;;;4.47;;
18449;SDS011;9354;50.194;7.690;2023-01-31T08:39:38;19.70;;;4.50;;
18449;SDS011;9354;50.194;7.690;2023-01-31T08:42:07;16.40;;;4.70;;
18449;SDS011;9354;50.194;7.690;2023-01-31T08:44:34;16.53;;;4.20;;
18449;SDS011;9354;50.194;7.690;2023-01-31T08:47:03;16.93;;;4.67;;
18449;SDS011;9354;50.194;7.690;2023-01-31T08:49:30;18.97;;;5.03;;
18449;SDS011;9354;50.194;7.690;2023-01-31T08:51:58;16.40;;;5.33;;
18449;SDS011;9354;50.194;7.690;2023-01-31T08:54:25;18.90;;;5.03;;
18449;SDS011;9354;50.194;7.690;2023-01-31T08:56:52;16.23;;;4.37;;
18449;SDS011;9354;50.194;7.690;2023-01-31T08:59:21;19.00;;;5.47;;
18449;SDS011;9354;50.194;7.690;2023-01-31T09:01:49;17.00;;;4.73;;
18449;SDS011;9354;50.194;7.690;2023-01-31T09:04:16;19.80;;;5.17;;
18449;SDS011;9354;50.194;7.690;2023-01-31T09:06:43;15.03;;;4.47;;
18449;SDS011;9354;50.194;7.690;2023-01-31T09:09:11;14.33;;;5.13;;
18449;SDS011;9354;50.194;7.690;2023-01-31T09:11:38;15.97;;;4.43;;
18449;SDS011;9354;50.194;7.690;2023-01-31T09:14:05;16.63;;;5.60;;
18449;SDS011;9354;50.194;7.690;2023-01-31T09:16:34;18.07;;;4.90;;
18449;SDS011;9354;50.194;7.690;2023-01-31T09:19:02;24.23;;;6.57;;
18449;SDS011;9354;50.194;7.690;2023-01-31T09:21:29;15.47;;;5.97;;
18449;SDS011;9354;50.194;7.690;2023-01-31T09:23:57;18.00;;;5.40;;
18449;SDS011;9354;50.194;7.690;2023-01-31T09:26:26;18.20;;;4.83;;
18449;SDS011;9354;50.194;7.690;2023-01-31T09:28:54;17.33;;;5.47;;
18449;SDS011;9354;50.194;7.690;2023-01-31T09:31:22;12.40;;;4.63;;
18449;SDS011;9354;50.194;7.690;2023-01-31T09:33:51;20.13;;;4.80;;
18449;SDS011;9354;50.194;7.690;2023-01-31T09:36:20;20.83;;;5.77;;
18449;SDS011;9354;50.194;7.690;2023-01-31T09:38:51;14.70;;;4.97;;
18449;SDS011;9354;50.194;7.690;2023-01-31T09:41:22;20.63;;;4.97;;
18449;SDS011;9354;50.194;7.690;2023-01-31T09:43:54;16.37;;;5.70;;
18449;SDS011;9354;50.194;7.690;2023-01-31T09:46:25;18.07;;;5.63;;
18449;SDS011;9354;50.194;7.690;2023-01-31T09:48:58;16.87;;;5.07;;
18449;SDS011;9354;50.194;7.690;2023-01-31T09:51:30;16.77;;;4.00;;
18449;SDS011;9354;50.194;7.690;2023-01-31T09:53:59;17.70;;;4.53;;
18449;SDS011;9354;50.194;7.690;2023-01-31T09:56:30;11.53;;;4.37;;
18449;SDS011;9354;50.194;7.690;2023-01-31T09:59:03;16.83;;;4.47;;
18449;SDS011;9354;50.194;7.690;2023-01-31T10:01:41;23.57;;;4.60;;
18449;SDS011;9354;50.194;7.690;2023-01-31T10:04:41;20.60;;;4.60;;
18449;SDS011;9354;50.194;7.690;2023-01-31T10:07:21;15.00;;;4.83;;
18449;SDS011;9354;50.194;7.690;2023-01-31T10:09:54;17.17;;;4.80;;
18449;SDS011;9354;50.194;7.690;2023-01-31T10:12:29;14.93;;;4.43;;
18449;SDS011;9354;50.194;7.690;2023-01-31T10:15:02;15.80;;;4.20;;
18449;SDS011;9354;50.194;7.690;2023-01-31T10:17:32;15.27;;;4.43;;
18449;SDS011;9354;50.194;7.690;2023-01-31T10:20:06;18.10;;;4.93;;
18449;SDS011;9354;50.194;7.690;2023-01-31T10:22:44;21.40;;;5.30;;
18449;SDS011;9354;50.194;7.690;2023-01-31T10:25:18;32.30;;;9.07;;
18449;SDS011;9354;50.194;7.690;2023-01-31T10:27:52;17.47;;;4.50;;
18449;SDS011;9354;50.194;7.690;2023-01-31T10:30:24;18.03;;;5.00;;
18449;SDS011;9354;50.194;7.690;2023-01-31T10:32:56;15.83;;;4.60;;
18449;SDS011;9354;50.194;7.690;2023-01-31T10:35:30;12.10;;;4.23;;
18449;SDS011;9354;50.194;7.690;2023-01-31T10:38:06;18.07;;;4.63;;
18449;SDS011;9354;50.194;7.690;2023-01-31T10:40:41;17.30;;;6.03;;
18449;SDS011;9354;50.194;7.690;2023-01-31T10:43:15;15.23;;;4.63;;
18449;SDS011;9354;50.194;7.690;2023-01-31T10:45:45;16.50;;;4.90;;
18449;SDS011;9354;50.194;7.690;2023-01-31T10:48:16;21.73;;;4.90;;
18449;SDS011;9354;50.194;7.690;2023-01-31T10:50:50;11.53;;;4.30;;
18449;SDS011;9354;50.194;7.690;2023-01-31T10:53:33;16.80;;;5.47;;
18449;SDS011;9354;50.194;7.690;2023-01-31T10:56:09;14.43;;;5.00;;
18449;SDS011;9354;50.194;7.690;2023-01-31T10:58:42;19.23;;;7.23;;
18449;SDS011;9354;50.194;7.690;2023-01-31T11:01:09;19.33;;;6.97;;
18449;SDS011;9354;50.194;7.690;2023-01-31T11:03:39;12.93;;;5.37;;
18449;SDS011;9354;50.194;7.690;2023-01-31T11:06:12;35.23;;;13.90;;
18449;SDS011;9354;50.194;7.690;2023-01-31T11:08:41;16.03;;;6.30;;
18449;SDS011;9354;50.194;7.690;2023-01-31T11:11:12;25.13;;;6.20;;
18449;SDS011;9354;50.194;7.690;2023-01-31T11:13:53;14.03;;;5.10;;
18449;SDS011;9354;50.194;7.690;2023-01-31T11:16:22;15.33;;;5.10;;
18449;SDS011;9354;50.194;7.690;2023-01-31T11:18:51;15.40;;;4.57;;
18449;SDS011;9354;50.194;7.690;2023-01-31T11:21:21;11.33;;;4.57;;
18449;SDS011;9354;50.194;7.690;2023-01-31T11:23:50;14.97;;;4.47;;
18449;SDS011;9354;50.194;7.690;2023-01-31T11:26:28;14.83;;;4.70;;
18449;SDS011;9354;50.194;7.690;2023-01-31T11:28:58;13.10;;;4.30;;
18449;SDS011;9354;50.194;7.690;2023-01-31T11:31:28;11.73;;;3.70;;
18449;SDS011;9354;50.194;7.690;2023-01-31T11:34:00;8.13;;;3.20;;
18449;SDS011;9354;50.194;7.690;2023-01-31T11:36:32;11.63;;;4.00;;
18449;SDS011;9354;50.194;7.690;2023-01-31T11:39:17;19.47;;;4.03;;
18449;SDS011;9354;50.194;7.690;2023-01-31T11:41:53;11.63;;;3.90;;
18449;SDS011;9354;50.194;7.690;2023-01-31T11:44:21;15.03;;;3.77;;
18449;SDS011;9354;50.194;7.690;2023-01-31T11:46:50;13.40;;;3.53;;
18449;SDS011;9354;50.194;7.690;2023-01-31T11:49:21;11.87;;;4.07;;
18449;SDS011;9354;50.194;7.690;2023-01-31T11:51:55;8.37;;;3.50;;
18449;SDS011;9354;50.194;7.690;2023-01-31T11:54:25;11.23;;;4.03;;
18449;SDS011;9354;50.194;7.690;2023-01-31T11:56:55;11.00;;;3.80;;
18449;SDS011;9354;50.194;7.690;2023-01-31T11:59:25;12.70;;;4.10;;
18449;SDS011;9354;50.194;7.690;2023-01-31T12:01:55;12.37;;;3.93;;
18449;SDS011;9354;50.194;7.690;2023-01-31T12:04:26;15.57;;;4.60;;
18449;SDS011;9354;50.194;7.690;2023-01-31T12:07:03;17.10;;;4.40;;
18449;SDS011;9354;50.194;7.690;2023-01-31T12:09:42;11.33;;;4.40;;
18449;SDS011;9354;50.194;7.690;2023-01-31T12:12:23;13.30;;;3.83;;
18449;SDS011;9354;50.194;7.690;2023-01-31T12:14:58;12.10;;;4.00;;
18449;SDS011;9354;50.194;7.690;2023-01-31T12:17:27;12.80;;;4.70;;
18449;SDS011;9354;50.194;7.690;2023-01-31T12:20:03;14.57;;;4.17;;
18449;SDS011;9354;50.194;7.690;2023-01-31T12:22:45;10.37;;;3.53;;
18449;SDS011;9354;50.194;7.690;2023-01-31T12:25:19;16.03;;;4.73;;
18449;SDS011;9354;50.194;7.690;2023-01-31T12:27:56;13.57;;;3.80;;
18449;SDS011;9354;50.194;7.690;2023-01-31T12:33:34;16.60;;;4.73;;
18449;SDS011;9354;50.194;7.690;2023-01-31T12:36:24;6.73;;;4.20;;
18449;SDS011;9354;50.194;7.690;2023-01-31T12:39:24;12.30;;;4.53;;
18449;SDS011;9354;50.194;7.690;2023-01-31T12:42:10;12.93;;;4.40;;
18449;SDS011;9354;50.194;7.690;2023-01-31T12:44:50;11.67;;;4.30;;
18449;SDS011;9354;50.194;7.690;2023-01-31T12:47:34;19.43;;;5.00;;
18449;SDS011;9354;50.194;7.690;2023-01-31T12:50:30;13.17;;;5.10;;
18449;SDS011;9354;50.194;7.690;2023-01-31T12:53:10;13.07;;;4.50;;
18449;SDS011;9354;50.194;7.690;2023-01-31T12:56:05;15.10;;;4.23;;
18449;SDS011;9354;50.194;7.690;2023-01-31T12:58:47;16.27;;;5.53;;
18449;SDS011;9354;50.194;7.690;2023-01-31T13:01:23;17.10;;;5.77;;
18449;SDS011;9354;50.194;7.690;2023-01-31T13:03:59;16.33;;;5.17;;
18449;SDS011;9354;50.194;7.690;2023-01-31T13:06:37;15.80;;;4.57;;
18449;SDS011;9354;50.194;7.690;2023-01-31T13:09:09;14.40;;;5.53;;
18449;SDS011;9354;50.194;7.690;2023-01-31T13:11:45;13.90;;;5.00;;
18449;SDS011;9354;50.194;7.690;2023-01-31T13:14:18;17.23;;;4.90;;
18449;SDS011;9354;50.194;7.690;2023-01-31T13:16:48;13.27;;;5.13;;
18449;SDS011;9354;50.194;7.690;2023-01-31T13:19:21;13.17;;;4.90;;
18449;SDS011;9354;50.194;7.690;2023-01-31T13:21:53;17.73;;;5.10;;
18449;SDS011;9354;50.194;7.690;2023-01-31T13:24:24;13.90;;;4.90;;
18449;SDS011;9354;50.194;7.690;2023-01-31T13:26:57;11.87;;;4.53;;
18449;SDS011;9354;50.194;7.690;2023-01-31T13:29:28;15.30;;;4.90;;
18449;SDS011;9354;50.194;7.690;2023-01-31T13:31:59;19.53;;;4.93;;
18449;SDS011;9354;50.194;7.690;2023-01-31T13:34:30;20.53;;;5.10;;
18449;SDS011;9354;50.194;7.690;2023-01-31T13:37:06;16.33;;;5.60;;
18449;SDS011;9354;50.194;7.690;2023-01-31T13:39:38;14.70;;;5.70;;
18449;SDS011;9354;50.194;7.690;2023-01-31T13:42:10;12.77;;;5.10;;
18449;SDS011;9354;50.194;7.690;2023-01-31T13:44:40;17.37;;;5.53;;
18449;SDS011;9354;50.194;7.690;2023-01-31T13:47:11;18.73;;;5.37;;
18449;SDS011;9354;50.194;7.690;2023-01-31T13:49:43;16.77;;;5.83;;
18449;SDS011;9354;50.194;7.690;2023-01-31T13:52:16;15.73;;;5.57;;
18449;SDS011;9354;50.194;7.690;2023-01-31T13:54:49;19.07;;;5.83;;
18449;SDS011;9354;50.194;7.690;2023-01-31T13:57:22;13.67;;;5.30;;
18449;SDS011;9354;50.194;7.690;2023-01-31T13:59:53;20.53;;;6.07;;
18449;SDS011;9354;50.194;7.690;2023-01-31T14:02:25;17.00;;;5.50;;
18449;SDS011;9354;50.194;7.690;2023-01-31T14:04:53;16.33;;;5.07;;
18449;SDS011;9354;50.194;7.690;2023-01-31T14:07:31;22.57;;;6.13;;
18449;SDS011;9354;50.194;7.690;2023-01-31T14:16:05;14.33;;;5.07;;
18449;SDS011;9354;50.194;7.690;2023-01-31T14:19:00;15.37;;;4.93;;
18449;SDS011;9354;50.194;7.690;2023-01-31T14:27:30;13.27;;;4.17;;
18449;SDS011;9354;50.194;7.690;2023-01-31T14:33:20;18.13;;;5.37;;
18449;SDS011;9354;50.194;7.690;2023-01-31T14:42:23;13.87;;;4.97;;
18449;SDS011;9354;50.194;7.690;2023-01-31T14:45:22;18.43;;;5.00;;
18449;SDS011;9354;50.194;7.690;2023-01-31T14:48:10;11.73;;;4.00;;
18449;SDS011;9354;50.194;7.690;2023-01-31T14:50:46;14.73;;;5.47;;
18449;SDS011;9354;50.194;7.690;2023-01-31T14:53:50;13.77;;;4.83;;
18449;SDS011;9354;50.194;7.690;2023-01-31T14:59:28;13.63;;;4.47;;
18449;SDS011;9354;50.194;7.690;2023-01-31T15:01:58;8.73;;;3.87;;
18449;SDS011;9354;50.194;7.690;2023-01-31T15:04:43;10.07;;;3.90;;
18449;SDS011;9354;50.194;7.690;2023-01-31T15:07:20;16.70;;;4.43;;
18449;SDS011;9354;50.194;7.690;2023-01-31T15:09:48;8.97;;;4.00;;
18449;SDS011;9354;50.194;7.690;2023-01-31T15:15:21;9.30;;;4.00;;
18449;SDS011;9354;50.194;7.690;2023-01-31T15:17:53;10.87;;;4.17;;
18449;SDS011;9354;50.194;7.690;2023-01-31T15:20:23;14.10;;;4.53;;
18449;SDS011;9354;50.194;7.690;2023-01-31T15:22:58;6.93;;;3.40;;
18449;SDS011;9354;50.194;7.690;2023-01-31T15:25:34;12.33;;;4.47;;
18449;SDS011;9354;50.194;7.690;2023-01-31T15:28:06;11.20;;;3.57;;
18449;SDS011;9354;50.194;7.690;2023-01-31T15:30:39;10.80;;;3.93;;
18449;SDS011;9354;50.194;7.690;2023-01-31T15:33:12;6.70;;;3.37;;
18449;SDS011;9354;50.194;7.690;2023-01-31T15:35:48;6.87;;;3.13;;
18449;SDS011;9354;50.194;7.690;2023-01-31T15:38:23;11.63;;;4.03;;
18449;SDS011;9354;50.194;7.690;2023-01-31T15:43:50;9.20;;;3.93;;
18449;SDS011;9354;50.194;7.690;2023-01-31T15:46:22;6.23;;;2.67;;
18449;SDS011;9354;50.194;7.690;2023-01-31T15:48:53;10.00;;;3.37;;
18449;SDS011;9354;50.194;7.690;2023-01-31T15:51:20;7.03;;;3.00;;
18449;SDS011;9354;50.194;7.690;2023-01-31T15:53:58;8.77;;;3.83;;